sensor_id;sensor_type;location;lat;lon;timestamp;P1;durP1;ratioP1;P2;durP2;ratioP2
80565;SDS011;69915;54.862;10.730;2023-08-21T00:01:21;8.13;;;3.08;;
80565;SDS011;69915;54.862;10.730;2023-08-21T00:03:47;7.85;;;2.78;;
80565;SDS011;69915;54.862;10.730;2023-08-21T00:06:12;10.70;;;2.90;;
80565;SDS011;69915;54.862;10.730;2023-08-21T00:08:38;8.00;;;3.15;;
80565;SDS011;69915;54.862;10.730;2023-08-21T00:11:03;9.98;;;2.55;;
80565;SDS011;69915;54.862;10.730;2023-08-21T00:13:29;15.07;;;3.60;;
80565;SDS011;69915;54.862;10.730;2023-08-21T00:15:54;9.95;;;3.65;;
80565;SDS011;69915;54.862;10.730;2023-08-21T00:18:20;8.45;;;3.03;;
80565;SDS011;69915;54.862;10.730;2023-08-21T00:20:46;7.03;;;2.83;;
80565;SDS011;69915;54.862;10.730;2023-08-21T00:23:11;12.70;;;2.80;;
80565;SDS011;69915;54.862;10.730;2023-08-21T00:25:37;10.95;;;3.50;;
80565;SDS011;69915;54.862;10.730;2023-08-21T00:28:02;8.18;;;3.45;;
80565;SDS011;69915;54.862;10.730;2023-08-21T00:30:28;7.40;;;3.10;;
80565;SDS011;69915;54.862;10.730;2023-08-21T00:32:54;11.23;;;2.83;;
80565;SDS011;69915;54.862;10.730;2023-08-21T00:35:19;9.30;;;4.00;;
80565;SDS011;69915;54.862;10.730;2023-08-21T00:37:44;9.77;;;3.40;;
80565;SDS011;69915;54.862;10.730;2023-08-21T00:40:10;12.73;;;3.70;;
80565;SDS011;69915;54.862;10.730;2023-08-21T00:42:36;11.13;;;4.47;;
80565;SDS011;69915;54.862;10.730;2023-08-21T00:45:01;9.68;;;4.22;;
80565;SDS011;69915;54.862;10.730;2023-08-21T00:47:28;8.93;;;4.00;;
80565;SDS011;69915;54.862;10.730;2023-08-21T00:49:53;13.05;;;4.15;;
80565;SDS011;69915;54.862;10.730;2023-08-21T00:52:19;11.10;;;4.22;;
80565;SDS011;69915;54.862;10.730;2023-08-21T00:54:44;15.48;;;5.05;;
80565;SDS011;69915;54.862;10.730;2023-08-21T00:57:10;10.88;;;4.30;;
80565;SDS011;69915;54.862;10.730;2023-08-21T00:59:36;9.13;;;4.15;;
80565;SDS011;69915;54.862;10.730;2023-08-21T01:02:03;10.07;;;4.18;;
80565;SDS011;69915;54.862;10.730;2023-08-21T01:04:29;13.15;;;4.53;;
80565;SDS011;69915;54.862;10.730;2023-08-21T01:06:54;12.38;;;4.20;;
80565;SDS011;69915;54.862;10.730;2023-08-21T01:14:49;13.82;;;4.13;;
80565;SDS011;69915;54.862;10.730;2023-08-21T01:17:23;14.25;;;3.85;;
80565;SDS011;69915;54.862;10.730;2023-08-21T01:19:49;12.60;;;4.40;;
80565;SDS011;69915;54.862;10.730;2023-08-21T01:22:15;13.93;;;3.92;;
80565;SDS011;69915;54.862;10.730;2023-08-21T01:24:41;15.45;;;3.33;;
80565;SDS011;69915;54.862;10.730;2023-08-21T01:27:07;10.73;;;4.07;;
80565;SDS011;69915;54.862;10.730;2023-08-21T01:29:33;8.35;;;3.50;;
80565;SDS011;69915;54.862;10.730;2023-08-21T01:32:20;12.48;;;4.18;;
80565;SDS011;69915;54.862;10.730;2023-08-21T01:34:47;9.68;;;3.33;;
80565;SDS011;69915;54.862;10.730;2023-08-21T01:37:14;15.65;;;4.43;;
80565;SDS011;69915;54.862;10.730;2023-08-21T01:39:41;12.82;;;3.80;;
80565;SDS011;69915;54.862;10.730;2023-08-21T01:42:06;8.70;;;3.20;;
80565;SDS011;69915;54.862;10.730;2023-08-21T01:44:32;9.05;;;3.80;;
80565;SDS011;69915;54.862;10.730;2023-08-21T01:46:57;11.25;;;4.07;;
80565;SDS011;69915;54.862;10.730;2023-08-21T01:49:23;8.77;;;3.28;;
80565;SDS011;69915;54.862;10.730;2023-08-21T01:51:48;9.70;;;4.30;;
80565;SDS011;69915;54.862;10.730;2023-08-21T01:54:14;10.57;;;3.40;;
80565;SDS011;69915;54.862;10.730;2023-08-21T01:56:39;8.80;;;4.28;;
80565;SDS011;69915;54.862;10.730;2023-08-21T01:59:05;8.60;;;3.63;;
80565;SDS011;69915;54.862;10.730;2023-08-21T02:01:31;15.18;;;3.55;;
80565;SDS011;69915;54.862;10.730;2023-08-21T02:03:57;9.85;;;3.95;;
80565;SDS011;69915;54.862;10.730;2023-08-21T02:06:22;11.63;;;3.67;;
80565;SDS011;69915;54.862;10.730;2023-08-21T02:08:48;8.15;;;3.92;;
80565;SDS011;69915;54.862;10.730;2023-08-21T02:11:14;8.07;;;3.58;;
80565;SDS011;69915;54.862;10.730;2023-08-21T02:13:40;10.15;;;3.10;;
80565;SDS011;69915;54.862;10.730;2023-08-21T02:16:05;8.93;;;3.80;;
80565;SDS011;69915;54.862;10.730;2023-08-21T02:18:31;13.27;;;4.40;;
80565;SDS011;69915;54.862;10.730;2023-08-21T02:20:56;6.75;;;2.97;;
80565;SDS011;69915;54.862;10.730;2023-08-21T02:23:22;11.13;;;3.40;;
80565;SDS011;69915;54.862;10.730;2023-08-21T02:25:49;10.90;;;3.80;;
80565;SDS011;69915;54.862;10.730;2023-08-21T02:28:14;10.40;;;3.03;;
80565;SDS011;69915;54.862;10.730;2023-08-21T02:30:40;9.27;;;2.67;;
80565;SDS011;69915;54.862;10.730;2023-08-21T02:33:06;8.95;;;3.53;;
80565;SDS011;69915;54.862;10.730;2023-08-21T02:35:31;9.98;;;3.50;;
80565;SDS011;69915;54.862;10.730;2023-08-21T02:37:57;8.93;;;3.20;;
80565;SDS011;69915;54.862;10.730;2023-08-21T02:40:22;9.35;;;3.17;;
80565;SDS011;69915;54.862;10.730;2023-08-21T02:42:48;6.53;;;2.30;;
80565;SDS011;69915;54.862;10.730;2023-08-21T02:45:13;10.18;;;3.03;;
80565;SDS011;69915;54.862;10.730;2023-08-21T02:47:39;8.15;;;2.75;;
80565;SDS011;69915;54.862;10.730;2023-08-21T02:50:05;11.75;;;2.80;;
80565;SDS011;69915;54.862;10.730;2023-08-21T02:52:32;5.57;;;2.47;;
80565;SDS011;69915;54.862;10.730;2023-08-21T02:54:59;6.75;;;2.22;;
80565;SDS011;69915;54.862;10.730;2023-08-21T02:57:24;7.30;;;2.92;;
80565;SDS011;69915;54.862;10.730;2023-08-21T02:59:51;12.60;;;3.00;;
80565;SDS011;69915;54.862;10.730;2023-08-21T03:02:17;11.52;;;3.40;;
80565;SDS011;69915;54.862;10.730;2023-08-21T03:04:43;8.10;;;3.05;;
80565;SDS011;69915;54.862;10.730;2023-08-21T03:07:09;6.78;;;2.42;;
80565;SDS011;69915;54.862;10.730;2023-08-21T03:09:35;8.25;;;2.45;;
80565;SDS011;69915;54.862;10.730;2023-08-21T03:12:01;11.07;;;2.83;;
80565;SDS011;69915;54.862;10.730;2023-08-21T03:14:27;10.38;;;2.72;;
80565;SDS011;69915;54.862;10.730;2023-08-21T03:16:52;6.40;;;2.95;;
80565;SDS011;69915;54.862;10.730;2023-08-21T03:19:18;8.48;;;2.40;;
80565;SDS011;69915;54.862;10.730;2023-08-21T03:21:43;8.88;;;2.45;;
80565;SDS011;69915;54.862;10.730;2023-08-21T03:24:09;6.25;;;2.17;;
80565;SDS011;69915;54.862;10.730;2023-08-21T03:26:34;8.05;;;2.00;;
80565;SDS011;69915;54.862;10.730;2023-08-21T03:29:00;8.15;;;2.38;;
80565;SDS011;69915;54.862;10.730;2023-08-21T03:31:25;7.68;;;3.10;;
80565;SDS011;69915;54.862;10.730;2023-08-21T03:33:51;8.13;;;2.88;;
80565;SDS011;69915;54.862;10.730;2023-08-21T03:36:16;5.10;;;2.10;;
80565;SDS011;69915;54.862;10.730;2023-08-21T03:38:42;5.35;;;2.40;;
80565;SDS011;69915;54.862;10.730;2023-08-21T03:41:08;6.40;;;2.13;;
80565;SDS011;69915;54.862;10.730;2023-08-21T03:43:33;5.88;;;2.10;;
80565;SDS011;69915;54.862;10.730;2023-08-21T03:45:59;6.95;;;2.20;;
80565;SDS011;69915;54.862;10.730;2023-08-21T03:48:24;5.25;;;2.00;;
80565;SDS011;69915;54.862;10.730;2023-08-21T03:50:50;9.45;;;2.95;;
80565;SDS011;69915;54.862;10.730;2023-08-21T03:53:15;5.50;;;2.13;;
80565;SDS011;69915;54.862;10.730;2023-08-21T03:55:41;7.80;;;2.70;;
80565;SDS011;69915;54.862;10.730;2023-08-21T03:58:06;6.47;;;2.05;;
80565;SDS011;69915;54.862;10.730;2023-08-21T04:00:32;4.72;;;1.88;;
80565;SDS011;69915;54.862;10.730;2023-08-21T04:02:57;5.18;;;2.00;;
80565;SDS011;69915;54.862;10.730;2023-08-21T04:05:23;3.70;;;2.03;;
80565;SDS011;69915;54.862;10.730;2023-08-21T04:07:48;10.23;;;2.80;;
80565;SDS011;69915;54.862;10.730;2023-08-21T04:10:14;6.88;;;2.38;;
80565;SDS011;69915;54.862;10.730;2023-08-21T04:12:41;6.72;;;2.15;;
80565;SDS011;69915;54.862;10.730;2023-08-21T04:15:06;7.72;;;2.72;;
80565;SDS011;69915;54.862;10.730;2023-08-21T04:17:32;6.57;;;2.28;;
80565;SDS011;69915;54.862;10.730;2023-08-21T04:19:57;8.63;;;3.03;;
80565;SDS011;69915;54.862;10.730;2023-08-21T04:22:23;8.80;;;2.58;;
80565;SDS011;69915;54.862;10.730;2023-08-21T04:24:48;5.00;;;3.05;;
80565;SDS011;69915;54.862;10.730;2023-08-21T04:27:14;6.10;;;2.45;;
80565;SDS011;69915;54.862;10.730;2023-08-21T04:29:39;7.35;;;1.90;;
80565;SDS011;69915;54.862;10.730;2023-08-21T04:32:05;5.32;;;2.75;;
80565;SDS011;69915;54.862;10.730;2023-08-21T04:34:34;6.82;;;2.35;;
80565;SDS011;69915;54.862;10.730;2023-08-21T04:37:00;8.35;;;2.85;;
80565;SDS011;69915;54.862;10.730;2023-08-21T04:39:26;6.75;;;2.80;;
80565;SDS011;69915;54.862;10.730;2023-08-21T04:41:51;6.68;;;2.55;;
80565;SDS011;69915;54.862;10.730;2023-08-21T04:44:17;14.43;;;3.03;;
80565;SDS011;69915;54.862;10.730;2023-08-21T04:46:42;9.25;;;2.58;;
80565;SDS011;69915;54.862;10.730;2023-08-21T04:49:08;5.05;;;2.45;;
80565;SDS011;69915;54.862;10.730;2023-08-21T04:51:34;6.82;;;2.53;;
80565;SDS011;69915;54.862;10.730;2023-08-21T04:53:59;5.43;;;2.47;;
80565;SDS011;69915;54.862;10.730;2023-08-21T04:56:25;8.82;;;2.58;;
80565;SDS011;69915;54.862;10.730;2023-08-21T04:58:52;6.05;;;2.10;;
80565;SDS011;69915;54.862;10.730;2023-08-21T05:01:17;7.60;;;2.28;;
80565;SDS011;69915;54.862;10.730;2023-08-21T05:03:43;15.40;;;2.42;;
80565;SDS011;69915;54.862;10.730;2023-08-21T05:06:08;7.68;;;2.00;;
80565;SDS011;69915;54.862;10.730;2023-08-21T05:08:34;6.35;;;2.30;;
80565;SDS011;69915;54.862;10.730;2023-08-21T05:11:00;7.60;;;1.92;;
80565;SDS011;69915;54.862;10.730;2023-08-21T05:13:26;8.93;;;2.75;;
80565;SDS011;69915;54.862;10.730;2023-08-21T05:15:55;5.93;;;2.35;;
80565;SDS011;69915;54.862;10.730;2023-08-21T05:18:22;7.03;;;2.35;;
80565;SDS011;69915;54.862;10.730;2023-08-21T05:20:48;4.95;;;2.13;;
80565;SDS011;69915;54.862;10.730;2023-08-21T05:23:15;6.03;;;2.08;;
80565;SDS011;69915;54.862;10.730;2023-08-21T05:25:42;6.50;;;2.28;;
80565;SDS011;69915;54.862;10.730;2023-08-21T05:28:08;6.45;;;2.60;;
80565;SDS011;69915;54.862;10.730;2023-08-21T05:30:35;6.50;;;2.25;;
80565;SDS011;69915;54.862;10.730;2023-08-21T05:33:01;8.40;;;2.03;;
80565;SDS011;69915;54.862;10.730;2023-08-21T05:35:27;9.88;;;3.15;;
80565;SDS011;69915;54.862;10.730;2023-08-21T05:37:53;8.68;;;1.92;;
80565;SDS011;69915;54.862;10.730;2023-08-21T05:40:18;6.43;;;2.13;;
80565;SDS011;69915;54.862;10.730;2023-08-21T05:42:44;7.82;;;2.17;;
80565;SDS011;69915;54.862;10.730;2023-08-21T05:45:10;6.20;;;1.92;;
80565;SDS011;69915;54.862;10.730;2023-08-21T05:47:35;7.70;;;2.22;;
80565;SDS011;69915;54.862;10.730;2023-08-21T05:50:01;6.97;;;2.10;;
80565;SDS011;69915;54.862;10.730;2023-08-21T05:52:27;8.00;;;1.95;;
80565;SDS011;69915;54.862;10.730;2023-08-21T05:54:52;6.07;;;2.40;;
80565;SDS011;69915;54.862;10.730;2023-08-21T05:57:18;10.02;;;2.50;;
80565;SDS011;69915;54.862;10.730;2023-08-21T05:59:44;5.35;;;1.85;;
80565;SDS011;69915;54.862;10.730;2023-08-21T06:02:10;8.85;;;2.58;;
80565;SDS011;69915;54.862;10.730;2023-08-21T06:04:37;5.93;;;2.13;;
80565;SDS011;69915;54.862;10.730;2023-08-21T06:07:05;10.43;;;2.47;;
80565;SDS011;69915;54.862;10.730;2023-08-21T06:09:31;6.15;;;2.20;;
80565;SDS011;69915;54.862;10.730;2023-08-21T06:11:59;6.65;;;2.47;;
80565;SDS011;69915;54.862;10.730;2023-08-21T06:14:28;5.13;;;2.10;;
80565;SDS011;69915;54.862;10.730;2023-08-21T06:16:59;5.70;;;2.22;;
80565;SDS011;69915;54.862;10.730;2023-08-21T06:19:26;9.75;;;3.00;;
80565;SDS011;69915;54.862;10.730;2023-08-21T06:21:52;7.63;;;3.22;;
80565;SDS011;69915;54.862;10.730;2023-08-21T06:24:18;9.77;;;3.00;;
80565;SDS011;69915;54.862;10.730;2023-08-21T06:26:43;5.93;;;2.83;;
80565;SDS011;69915;54.862;10.730;2023-08-21T06:29:09;8.13;;;3.15;;
80565;SDS011;69915;54.862;10.730;2023-08-21T06:31:34;9.30;;;2.60;;
80565;SDS011;69915;54.862;10.730;2023-08-21T06:33:59;8.43;;;2.30;;
80565;SDS011;69915;54.862;10.730;2023-08-21T06:36:25;7.35;;;2.65;;
80565;SDS011;69915;54.862;10.730;2023-08-21T06:38:50;7.78;;;2.67;;
80565;SDS011;69915;54.862;10.730;2023-08-21T06:41:16;5.25;;;2.22;;
80565;SDS011;69915;54.862;10.730;2023-08-21T06:43:41;6.05;;;2.22;;
80565;SDS011;69915;54.862;10.730;2023-08-21T06:46:07;6.95;;;2.38;;
80565;SDS011;69915;54.862;10.730;2023-08-21T06:48:33;10.82;;;2.35;;
80565;SDS011;69915;54.862;10.730;2023-08-21T06:51:00;5.60;;;1.90;;
80565;SDS011;69915;54.862;10.730;2023-08-21T06:53:27;7.43;;;2.50;;
80565;SDS011;69915;54.862;10.730;2023-08-21T06:55:53;7.63;;;1.80;;
80565;SDS011;69915;54.862;10.730;2023-08-21T06:58:19;5.43;;;2.03;;
80565;SDS011;69915;54.862;10.730;2023-08-21T07:00:44;5.68;;;2.13;;
80565;SDS011;69915;54.862;10.730;2023-08-21T07:03:10;5.53;;;2.13;;
80565;SDS011;69915;54.862;10.730;2023-08-21T07:05:36;6.07;;;1.95;;
80565;SDS011;69915;54.862;10.730;2023-08-21T07:08:02;5.03;;;1.73;;
80565;SDS011;69915;54.862;10.730;2023-08-21T07:10:28;6.78;;;2.17;;
80565;SDS011;69915;54.862;10.730;2023-08-21T07:12:54;5.22;;;1.70;;
80565;SDS011;69915;54.862;10.730;2023-08-21T07:15:20;4.85;;;1.88;;
80565;SDS011;69915;54.862;10.730;2023-08-21T07:17:45;8.50;;;2.08;;
80565;SDS011;69915;54.862;10.730;2023-08-21T07:20:11;4.00;;;1.52;;
80565;SDS011;69915;54.862;10.730;2023-08-21T07:22:37;4.65;;;1.73;;
80565;SDS011;69915;54.862;10.730;2023-08-21T07:25:03;4.65;;;1.63;;
80565;SDS011;69915;54.862;10.730;2023-08-21T07:27:30;4.00;;;2.15;;
80565;SDS011;69915;54.862;10.730;2023-08-21T07:29:56;4.22;;;1.92;;
80565;SDS011;69915;54.862;10.730;2023-08-21T07:32:21;5.32;;;1.25;;
80565;SDS011;69915;54.862;10.730;2023-08-21T07:34:47;3.58;;;1.33;;
80565;SDS011;69915;54.862;10.730;2023-08-21T07:37:12;5.07;;;1.70;;
80565;SDS011;69915;54.862;10.730;2023-08-21T07:39:38;4.57;;;1.85;;
80565;SDS011;69915;54.862;10.730;2023-08-21T07:42:03;3.42;;;1.33;;
80565;SDS011;69915;54.862;10.730;2023-08-21T07:44:29;4.03;;;1.55;;
80565;SDS011;69915;54.862;10.730;2023-08-21T07:46:54;6.68;;;1.95;;
80565;SDS011;69915;54.862;10.730;2023-08-21T07:49:20;6.28;;;1.73;;
80565;SDS011;69915;54.862;10.730;2023-08-21T07:51:45;4.35;;;1.75;;
80565;SDS011;69915;54.862;10.730;2023-08-21T07:54:11;5.88;;;1.42;;
80565;SDS011;69915;54.862;10.730;2023-08-21T07:56:37;7.55;;;1.60;;
80565;SDS011;69915;54.862;10.730;2023-08-21T07:59:04;3.28;;;1.10;;
80565;SDS011;69915;54.862;10.730;2023-08-21T08:01:30;5.07;;;1.35;;
80565;SDS011;69915;54.862;10.730;2023-08-21T08:03:55;2.88;;;1.10;;
80565;SDS011;69915;54.862;10.730;2023-08-21T08:06:20;3.60;;;1.02;;
80565;SDS011;69915;54.862;10.730;2023-08-21T08:08:46;4.13;;;1.10;;
80565;SDS011;69915;54.862;10.730;2023-08-21T08:11:11;3.47;;;0.98;;
80565;SDS011;69915;54.862;10.730;2023-08-21T08:13:37;6.50;;;1.20;;
80565;SDS011;69915;54.862;10.730;2023-08-21T08:16:02;3.33;;;1.00;;
80565;SDS011;69915;54.862;10.730;2023-08-21T08:18:28;3.00;;;1.00;;
80565;SDS011;69915;54.862;10.730;2023-08-21T08:20:54;4.32;;;0.90;;
80565;SDS011;69915;54.862;10.730;2023-08-21T08:23:20;3.97;;;1.08;;
80565;SDS011;69915;54.862;10.730;2023-08-21T08:25:45;5.35;;;1.33;;
80565;SDS011;69915;54.862;10.730;2023-08-21T08:28:11;7.13;;;1.20;;
80565;SDS011;69915;54.862;10.730;2023-08-21T08:30:36;4.85;;;1.20;;
80565;SDS011;69915;54.862;10.730;2023-08-21T08:33:02;3.72;;;1.00;;
80565;SDS011;69915;54.862;10.730;2023-08-21T08:35:27;4.18;;;0.90;;
80565;SDS011;69915;54.862;10.730;2023-08-21T08:37:53;5.35;;;0.98;;
80565;SDS011;69915;54.862;10.730;2023-08-21T08:40:18;3.70;;;0.70;;
80565;SDS011;69915;54.862;10.730;2023-08-21T08:42:44;3.20;;;0.85;;
80565;SDS011;69915;54.862;10.730;2023-08-21T08:45:09;2.72;;;1.00;;
80565;SDS011;69915;54.862;10.730;2023-08-21T08:47:37;6.22;;;1.00;;
80565;SDS011;69915;54.862;10.730;2023-08-21T08:50:06;6.20;;;1.33;;
80565;SDS011;69915;54.862;10.730;2023-08-21T08:52:36;4.78;;;1.30;;
80565;SDS011;69915;54.862;10.730;2023-08-21T08:55:03;2.95;;;1.10;;
80565;SDS011;69915;54.862;10.730;2023-08-21T08:57:29;2.55;;;0.80;;
80565;SDS011;69915;54.862;10.730;2023-08-21T08:59:55;5.95;;;1.02;;
80565;SDS011;69915;54.862;10.730;2023-08-21T09:02:21;3.40;;;1.58;;
80565;SDS011;69915;54.862;10.730;2023-08-21T09:04:46;4.32;;;0.90;;
80565;SDS011;69915;54.862;10.730;2023-08-21T09:07:12;2.40;;;1.13;;
80565;SDS011;69915;54.862;10.730;2023-08-21T09:09:41;13.18;;;3.47;;
80565;SDS011;69915;54.862;10.730;2023-08-21T09:12:12;4.35;;;0.98;;
80565;SDS011;69915;54.862;10.730;2023-08-21T09:14:39;2.08;;;0.98;;
80565;SDS011;69915;54.862;10.730;2023-08-21T09:17:05;4.53;;;1.20;;
80565;SDS011;69915;54.862;10.730;2023-08-21T09:19:31;2.25;;;0.60;;
80565;SDS011;69915;54.862;10.730;2023-08-21T09:21:56;3.83;;;1.00;;
80565;SDS011;69915;54.862;10.730;2023-08-21T09:24:22;4.30;;;1.00;;
80565;SDS011;69915;54.862;10.730;2023-08-21T09:26:48;2.70;;;0.90;;
80565;SDS011;69915;54.862;10.730;2023-08-21T09:29:14;6.40;;;0.93;;
80565;SDS011;69915;54.862;10.730;2023-08-21T09:31:40;6.32;;;1.02;;
80565;SDS011;69915;54.862;10.730;2023-08-21T09:34:05;4.80;;;1.40;;
80565;SDS011;69915;54.862;10.730;2023-08-21T09:36:31;3.15;;;1.02;;
80565;SDS011;69915;54.862;10.730;2023-08-21T09:38:57;4.50;;;1.10;;
80565;SDS011;69915;54.862;10.730;2023-08-21T09:41:23;3.58;;;1.10;;
80565;SDS011;69915;54.862;10.730;2023-08-21T09:43:50;3.67;;;1.13;;
80565;SDS011;69915;54.862;10.730;2023-08-21T09:46:16;3.72;;;0.98;;
80565;SDS011;69915;54.862;10.730;2023-08-21T09:48:45;2.42;;;0.88;;
80565;SDS011;69915;54.862;10.730;2023-08-21T09:51:12;4.43;;;1.23;;
80565;SDS011;69915;54.862;10.730;2023-08-21T09:53:37;4.35;;;1.10;;
80565;SDS011;69915;54.862;10.730;2023-08-21T09:56:05;6.70;;;1.67;;
80565;SDS011;69915;54.862;10.730;2023-08-21T09:58:31;5.13;;;1.48;;
80565;SDS011;69915;54.862;10.730;2023-08-21T10:00:57;6.03;;;1.23;;
80565;SDS011;69915;54.862;10.730;2023-08-21T10:03:23;2.92;;;1.30;;
80565;SDS011;69915;54.862;10.730;2023-08-21T10:05:50;4.10;;;1.13;;
80565;SDS011;69915;54.862;10.730;2023-08-21T10:08:23;5.57;;;1.42;;
80565;SDS011;69915;54.862;10.730;2023-08-21T10:10:49;6.15;;;1.38;;
80565;SDS011;69915;54.862;10.730;2023-08-21T10:13:15;5.38;;;1.30;;
80565;SDS011;69915;54.862;10.730;2023-08-21T10:15:41;4.68;;;1.30;;
80565;SDS011;69915;54.862;10.730;2023-08-21T10:18:21;7.55;;;1.60;;
80565;SDS011;69915;54.862;10.730;2023-08-21T10:20:52;3.90;;;1.50;;
80565;SDS011;69915;54.862;10.730;2023-08-21T10:23:25;3.33;;;1.20;;
80565;SDS011;69915;54.862;10.730;2023-08-21T10:25:56;3.72;;;1.00;;
80565;SDS011;69915;54.862;10.730;2023-08-21T10:28:22;3.70;;;1.13;;
80565;SDS011;69915;54.862;10.730;2023-08-21T10:30:48;2.88;;;1.13;;
80565;SDS011;69915;54.862;10.730;2023-08-21T10:33:14;6.32;;;1.55;;
80565;SDS011;69915;54.862;10.730;2023-08-21T10:35:39;3.70;;;1.55;;
80565;SDS011;69915;54.862;10.730;2023-08-21T10:40:30;5.63;;;0.98;;
80565;SDS011;69915;54.862;10.730;2023-08-21T10:42:56;2.88;;;0.82;;
80565;SDS011;69915;54.862;10.730;2023-08-21T10:45:21;4.22;;;1.10;;
80565;SDS011;69915;54.862;10.730;2023-08-21T10:47:47;4.30;;;1.30;;
80565;SDS011;69915;54.862;10.730;2023-08-21T10:50:14;5.75;;;1.38;;
80565;SDS011;69915;54.862;10.730;2023-08-21T10:52:40;4.75;;;1.08;;
80565;SDS011;69915;54.862;10.730;2023-08-21T10:55:07;8.70;;;1.15;;
80565;SDS011;69915;54.862;10.730;2023-08-21T10:57:37;3.13;;;0.93;;
80565;SDS011;69915;54.862;10.730;2023-08-21T11:00:04;2.70;;;0.82;;
80565;SDS011;69915;54.862;10.730;2023-08-21T11:02:46;7.07;;;1.63;;
80565;SDS011;69915;54.862;10.730;2023-08-21T11:05:13;5.50;;;1.30;;
80565;SDS011;69915;54.862;10.730;2023-08-21T11:07:43;4.30;;;0.90;;
80565;SDS011;69915;54.862;10.730;2023-08-21T11:10:11;5.60;;;1.10;;
80565;SDS011;69915;54.862;10.730;2023-08-21T11:12:39;3.55;;;1.10;;
80565;SDS011;69915;54.862;10.730;2023-08-21T11:15:17;4.97;;;1.13;;
80565;SDS011;69915;54.862;10.730;2023-08-21T11:17:50;5.15;;;1.13;;
80565;SDS011;69915;54.862;10.730;2023-08-21T11:20:22;3.25;;;1.00;;
80565;SDS011;69915;54.862;10.730;2023-08-21T11:22:56;4.60;;;1.00;;
80565;SDS011;69915;54.862;10.730;2023-08-21T11:25:22;4.70;;;1.02;;
80565;SDS011;69915;54.862;10.730;2023-08-21T11:27:48;2.55;;;0.90;;
80565;SDS011;69915;54.862;10.730;2023-08-21T11:30:13;4.70;;;1.08;;
80565;SDS011;69915;54.862;10.730;2023-08-21T11:32:39;4.70;;;1.17;;
80565;SDS011;69915;54.862;10.730;2023-08-21T11:35:04;5.35;;;1.20;;
80565;SDS011;69915;54.862;10.730;2023-08-21T11:37:30;5.15;;;1.40;;
80565;SDS011;69915;54.862;10.730;2023-08-21T11:39:56;3.25;;;1.05;;
80565;SDS011;69915;54.862;10.730;2023-08-21T11:42:28;6.65;;;1.42;;
80565;SDS011;69915;54.862;10.730;2023-08-21T11:44:55;5.50;;;1.10;;
80565;SDS011;69915;54.862;10.730;2023-08-21T11:47:22;3.80;;;0.93;;
80565;SDS011;69915;54.862;10.730;2023-08-21T11:49:48;5.80;;;0.90;;
80565;SDS011;69915;54.862;10.730;2023-08-21T11:52:30;3.75;;;0.90;;
80565;SDS011;69915;54.862;10.730;2023-08-21T11:54:58;4.55;;;1.30;;
80565;SDS011;69915;54.862;10.730;2023-08-21T11:57:23;5.05;;;1.20;;
80565;SDS011;69915;54.862;10.730;2023-08-21T11:59:53;3.00;;;0.90;;
80565;SDS011;69915;54.862;10.730;2023-08-21T12:02:23;4.78;;;1.23;;
80565;SDS011;69915;54.862;10.730;2023-08-21T12:05:06;4.78;;;0.90;;
80565;SDS011;69915;54.862;10.730;2023-08-21T12:07:38;3.65;;;1.00;;
80565;SDS011;69915;54.862;10.730;2023-08-21T12:10:04;2.95;;;0.98;;
80565;SDS011;69915;54.862;10.730;2023-08-21T12:12:29;2.83;;;0.70;;
80565;SDS011;69915;54.862;10.730;2023-08-21T12:14:55;3.90;;;1.08;;
80565;SDS011;69915;54.862;10.730;2023-08-21T12:17:20;4.53;;;1.25;;
80565;SDS011;69915;54.862;10.730;2023-08-21T12:19:46;8.52;;;2.45;;
80565;SDS011;69915;54.862;10.730;2023-08-21T12:22:11;5.53;;;0.90;;
80565;SDS011;69915;54.862;10.730;2023-08-21T12:24:37;8.57;;;1.13;;
80565;SDS011;69915;54.862;10.730;2023-08-21T12:27:03;3.22;;;0.85;;
80565;SDS011;69915;54.862;10.730;2023-08-21T12:29:29;3.38;;;0.80;;
80565;SDS011;69915;54.862;10.730;2023-08-21T12:31:54;4.25;;;1.00;;
80565;SDS011;69915;54.862;10.730;2023-08-21T12:34:20;6.47;;;1.50;;
80565;SDS011;69915;54.862;10.730;2023-08-21T12:36:46;2.70;;;1.10;;
80565;SDS011;69915;54.862;10.730;2023-08-21T12:39:11;3.22;;;0.68;;
80565;SDS011;69915;54.862;10.730;2023-08-21T12:41:37;4.70;;;1.08;;
80565;SDS011;69915;54.862;10.730;2023-08-21T12:44:02;6.45;;;1.02;;
80565;SDS011;69915;54.862;10.730;2023-08-21T12:46:28;3.25;;;1.13;;
80565;SDS011;69915;54.862;10.730;2023-08-21T12:48:55;2.53;;;0.95;;
80565;SDS011;69915;54.862;10.730;2023-08-21T12:51:21;3.38;;;1.00;;
80565;SDS011;69915;54.862;10.730;2023-08-21T12:53:47;3.65;;;1.00;;
80565;SDS011;69915;54.862;10.730;2023-08-21T12:56:12;3.47;;;1.17;;
80565;SDS011;69915;54.862;10.730;2023-08-21T12:58:38;4.95;;;1.00;;
80565;SDS011;69915;54.862;10.730;2023-08-21T13:01:03;7.55;;;1.42;;
80565;SDS011;69915;54.862;10.730;2023-08-21T13:03:30;4.60;;;1.25;;
80565;SDS011;69915;54.862;10.730;2023-08-21T13:05:56;5.03;;;1.10;;
80565;SDS011;69915;54.862;10.730;2023-08-21T13:08:21;2.92;;;0.93;;
80565;SDS011;69915;54.862;10.730;2023-08-21T13:10:48;3.70;;;0.63;;
80565;SDS011;69915;54.862;10.730;2023-08-21T13:13:13;5.18;;;1.15;;
80565;SDS011;69915;54.862;10.730;2023-08-21T13:15:39;5.38;;;0.93;;
80565;SDS011;69915;54.862;10.730;2023-08-21T13:18:04;4.45;;;0.93;;
80565;SDS011;69915;54.862;10.730;2023-08-21T13:20:30;4.60;;;1.13;;
80565;SDS011;69915;54.862;10.730;2023-08-21T13:22:55;5.10;;;1.30;;
80565;SDS011;69915;54.862;10.730;2023-08-21T13:25:24;4.43;;;0.90;;
80565;SDS011;69915;54.862;10.730;2023-08-21T13:27:50;3.83;;;1.20;;
80565;SDS011;69915;54.862;10.730;2023-08-21T13:30:16;2.83;;;1.00;;
80565;SDS011;69915;54.862;10.730;2023-08-21T13:32:42;3.33;;;0.90;;
80565;SDS011;69915;54.862;10.730;2023-08-21T13:35:08;3.25;;;0.68;;
80565;SDS011;69915;54.862;10.730;2023-08-21T13:37:35;5.18;;;1.02;;
80565;SDS011;69915;54.862;10.730;2023-08-21T13:40:01;3.72;;;1.15;;
80565;SDS011;69915;54.862;10.730;2023-08-21T13:42:34;2.85;;;0.63;;
80565;SDS011;69915;54.862;10.730;2023-08-21T13:45:02;2.58;;;0.90;;
80565;SDS011;69915;54.862;10.730;2023-08-21T13:47:28;4.03;;;0.98;;
80565;SDS011;69915;54.862;10.730;2023-08-21T13:49:54;5.82;;;1.23;;
80565;SDS011;69915;54.862;10.730;2023-08-21T13:52:19;5.97;;;1.05;;
80565;SDS011;69915;54.862;10.730;2023-08-21T13:54:46;4.70;;;1.00;;
80565;SDS011;69915;54.862;10.730;2023-08-21T13:57:12;6.55;;;1.88;;
80565;SDS011;69915;54.862;10.730;2023-08-21T13:59:37;2.60;;;1.20;;
80565;SDS011;69915;54.862;10.730;2023-08-21T14:02:03;3.20;;;0.70;;
80565;SDS011;69915;54.862;10.730;2023-08-21T14:04:29;5.10;;;1.20;;
80565;SDS011;69915;54.862;10.730;2023-08-21T14:06:55;5.88;;;1.13;;
80565;SDS011;69915;54.862;10.730;2023-08-21T14:09:20;3.53;;;0.88;;
80565;SDS011;69915;54.862;10.730;2023-08-21T14:11:46;4.30;;;0.88;;
80565;SDS011;69915;54.862;10.730;2023-08-21T14:14:11;3.97;;;0.90;;
80565;SDS011;69915;54.862;10.730;2023-08-21T14:16:37;2.97;;;0.80;;
80565;SDS011;69915;54.862;10.730;2023-08-21T14:19:02;4.45;;;1.00;;
80565;SDS011;69915;54.862;10.730;2023-08-21T14:21:28;3.00;;;0.85;;
80565;SDS011;69915;54.862;10.730;2023-08-21T14:23:53;3.58;;;0.82;;
80565;SDS011;69915;54.862;10.730;2023-08-21T14:26:19;3.97;;;0.90;;
80565;SDS011;69915;54.862;10.730;2023-08-21T14:28:44;4.60;;;0.93;;
80565;SDS011;69915;54.862;10.730;2023-08-21T14:31:15;2.67;;;0.70;;
80565;SDS011;69915;54.862;10.730;2023-08-21T14:33:40;6.32;;;1.75;;
80565;SDS011;69915;54.862;10.730;2023-08-21T14:36:06;12.60;;;1.13;;